Terminal Aerodrome Forecast
Issued by NWS Atlanta, GA

Home | Current Version | Previous Version | Text Only | Print | Product List | Glossary On
Versions: 1 2 3 4 5 6 7 8 9 10 11 12 13 14 15 16 17 18
000
FTUS42 KFFC 241735
TAFMCN
TAF
KMCN 241735Z 2418/2518 10010G15KT P6SM SCT060
     FM250000 11008KT P6SM FEW080
     FM250600 10005KT P6SM SCT015
     FM250800 09005KT P6SM BKN007
     FM251400 11006KT P6SM BKN030=

USA.gov is the U.S. government's official web portal to all federal, state and local government web resources and services.